Time;durP1;ratioP1;P1;durP2;ratioP2;P2;SDS_P1;SDS_P2;PMS_P1;PMS_P2;Temp;Humidity;BMP_temperature;BMP_pressure;BME280_temperature;BME280_humidity;BME280_pressure;Samples;Min_cycle;Max_cycle;Signal;HPM_P1;HPM_P2
2022/03/23 00:01:22;;;;;;;23.65;4.80;;;;;;;7.00;65.74;101955.22;5091213;28;20541;-73
2022/03/23 00:03:48;;;;;;;17.88;4.53;;;;;;;6.99;65.78;101952.63;5092129;28;20154;-73
2022/03/23 00:06:14;;;;;;;18.70;4.75;;;;;;;7.03;65.51;101960.44;5092083;28;20381;-73
2022/03/23 00:08:40;;;;;;;13.27;4.55;;;;;;;7.09;65.72;101957.47;5091959;28;20421;-73
2022/03/23 00:11:06;;;;;;;17.35;4.60;;;;;;;7.06;65.87;101957.63;5091905;28;20024;-73
2022/03/23 00:13:32;;;;;;;18.88;5.40;;;;;;;7.03;65.86;101954.25;5091938;28;20028;-74
2022/03/23 00:15:58;;;;;;;12.30;4.40;;;;;;;7.08;66.14;101955.75;5091839;28;20036;-74
2022/03/23 00:18:24;;;;;;;11.38;4.03;;;;;;;7.07;66.13;101956.69;5091533;28;20020;-74
2022/03/23 00:20:49;;;;;;;22.90;4.47;;;;;;;7.25;66.09;101949.63;5073544;28;20035;-74
2022/03/23 00:23:15;;;;;;;26.45;6.28;;;;;;;7.28;65.68;101952.16;5091699;28;20027;-74
2022/03/23 00:25:40;;;;;;;26.52;5.15;;;;;;;7.35;65.65;101945.56;5073592;28;20023;-74
2022/03/23 00:28:07;;;;;;;21.10;4.53;;;;;;;7.36;65.36;101943.78;5091490;28;20028;-74
2022/03/23 00:30:33;;;;;;;22.13;5.30;;;;;;;7.25;65.61;101946.09;5091774;28;20031;-74
2022/03/23 00:33:02;;;;;;;17.50;4.95;;;;;;;7.25;65.59;101946.09;5073631;28;20405;-73
2022/03/23 00:35:27;;;;;;;22.90;4.13;;;;;;;7.19;65.70;101949.91;5073537;28;20523;-73
2022/03/23 00:37:54;;;;;;;19.45;4.97;;;;;;;7.19;65.82;101947.22;5091748;28;20036;-73
2022/03/23 00:40:19;;;;;;;22.88;4.82;;;;;;;7.14;65.87;101946.56;5091520;28;20520;-73
2022/03/23 00:42:44;;;;;;;11.70;4.00;;;;;;;7.10;65.89;101943.16;5091492;28;20055;-74
2022/03/23 00:45:11;;;;;;;12.80;4.05;;;;;;;7.04;65.99;101947.94;5091773;28;20024;-73
2022/03/23 00:47:38;;;;;;;27.67;4.90;;;;;;;7.12;65.96;101948.47;5091641;28;20028;-74
2022/03/23 00:50:04;;;;;;;22.27;5.55;;;;;;;7.00;66.21;101935.66;5073388;28;20024;-73
2022/03/23 00:52:30;;;;;;;27.70;5.15;;;;;;;7.05;66.05;101934.50;5073199;28;20024;-73
2022/03/23 00:54:56;;;;;;;11.00;3.92;;;;;;;6.97;65.93;101928.59;5091461;28;20035;-74
2022/03/23 00:57:21;;;;;;;12.23;4.35;;;;;;;6.90;66.12;101927.19;5091327;28;20401;-74
2022/03/23 00:59:46;;;;;;;20.42;5.13;;;;;;;6.89;66.16;101933.44;5073183;28;20032;-73
2022/03/23 01:02:14;;;;;;;24.42;4.93;;;;;;;6.95;66.23;101925.16;5091027;28;20064;-73
2022/03/23 01:04:40;;;;;;;21.50;5.35;;;;;;;6.94;65.93;101941.28;5073141;28;20446;-74
2022/03/23 01:07:05;;;;;;;22.08;4.82;;;;;;;6.88;66.17;101926.34;5091072;28;20057;-74
2022/03/23 01:09:31;;;;;;;11.65;3.97;;;;;;;6.86;66.54;101928.25;5073137;28;20028;-73
2022/03/23 01:11:57;;;;;;;17.67;4.20;;;;;;;6.77;66.91;101923.31;5091353;28;20024;-73
2022/03/23 01:14:24;;;;;;;24.73;5.18;;;;;;;6.65;67.29;101913.16;5095263;28;20139;-74
2022/03/23 01:16:50;;;;;;;19.67;5.43;;;;;;;6.60;67.23;101912.53;5095415;28;20082;-73
2022/03/23 01:19:17;;;;;;;19.10;5.95;;;;;;;6.53;67.39;101919.94;5095338;28;20027;-74
2022/03/23 01:21:44;;;;;;;21.05;4.95;;;;;;;6.45;67.79;101916.72;5095309;28;20028;-73
2022/03/23 01:24:10;;;;;;;15.40;4.20;;;;;;;6.40;67.90;101905.38;5095058;28;20035;-73
2022/03/23 01:26:36;;;;;;;19.83;4.35;;;;;;;6.44;68.02;101920.34;5094978;28;20086;-73
2022/03/23 01:29:02;;;;;;;22.10;4.60;;;;;;;6.39;68.05;101911.63;5094957;28;20044;-74
2022/03/23 01:31:27;;;;;;;24.48;4.95;;;;;;;6.32;68.32;101910.19;5076645;28;20136;-73
2022/03/23 01:33:59;;;;;;;18.52;4.63;;;;;;;6.35;68.49;101910.06;5076652;28;20030;-73
2022/03/23 01:36:25;;;;;;;33.22;5.15;;;;;;;6.37;68.49;101910.84;5094890;28;20099;-73
2022/03/23 01:38:50;;;;;;;35.35;6.10;;;;;;;6.36;68.77;101911.78;5094853;28;20081;-73
2022/03/23 01:41:17;;;;;;;14.60;4.68;;;;;;;6.29;68.62;101899.63;5094791;28;20028;-73
2022/03/23 01:43:42;;;;;;;24.65;4.03;;;;;;;6.26;69.09;101898.88;5076467;28;20459;-73
2022/03/23 01:46:08;;;;;;;20.95;5.85;;;;;;;6.21;69.13;101901.75;5094841;28;20028;-73
2022/03/23 01:48:33;;;;;;;22.17;5.30;;;;;;;6.14;69.52;101900.28;5076373;28;20024;-73
2022/03/23 01:50:59;;;;;;;15.85;4.82;;;;;;;6.18;69.44;101899.22;5076429;28;20438;-73
2022/03/23 01:53:24;;;;;;;18.05;4.20;;;;;;;6.10;69.59;101898.69;5094812;28;20066;-73
2022/03/23 01:55:50;;;;;;;14.13;5.30;;;;;;;6.21;69.41;101901.75;5094616;28;20020;-73
2022/03/23 01:58:17;;;;;;;27.83;5.65;;;;;;;6.16;69.45;101901.09;5094744;28;20410;-74
2022/03/23 02:00:42;;;;;;;14.93;4.63;;;;;;;6.17;69.16;101905.50;5094642;28;20086;-74
2022/03/23 02:03:11;;;;;;;24.70;5.22;;;;;;;6.20;69.31;101900.03;5076447;28;20543;-73
2022/03/23 02:05:37;;;;;;;33.10;5.50;;;;;;;6.23;69.01;101909.72;5094271;28;20047;-74
2022/03/23 02:08:02;;;;;;;19.52;5.97;;;;;;;6.16;68.85;101919.78;5093950;28;20056;-74
2022/03/23 02:10:28;;;;;;;15.60;6.13;;;;;;;6.17;68.88;101897.50;5094205;28;20027;-73
2022/03/23 02:12:54;;;;;;;17.67;5.55;;;;;;;6.03;69.42;101907.88;5076258;28;20413;-74
2022/03/23 02:15:21;;;;;;;25.08;4.85;;;;;;;5.92;69.51;101905.66;5094217;28;20039;-73
2022/03/23 02:17:50;;;;;;;17.77;5.03;;;;;;;5.83;69.91;101903.34;5075747;28;20043;-73
2022/03/23 02:20:15;;;;;;;18.15;5.32;;;;;;;5.89;69.89;101910.25;5093846;28;20104;-73
2022/03/23 02:22:41;;;;;;;19.73;6.00;;;;;;;5.84;70.14;101910.41;5094061;28;20374;-74
2022/03/23 02:25:07;;;;;;;17.10;5.30;;;;;;;5.85;70.04;101893.50;5074756;28;20032;-74
2022/03/23 02:27:36;;;;;;;20.77;5.07;;;;;;;5.79;70.10;101906.19;5093794;28;20023;-74
2022/03/23 02:30:05;;;;;;;28.55;5.60;;;;;;;5.77;70.05;101913.41;5093836;28;20421;-74
2022/03/23 02:32:30;;;;;;;19.60;5.78;;;;;;;5.75;69.76;101909.94;5075679;28;20490;-74
2022/03/23 02:34:56;;;;;;;22.75;6.40;;;;;;;5.78;69.80;101917.81;5093752;28;20175;-74
2022/03/23 02:37:21;;;;;;;29.73;6.07;;;;;;;5.61;69.64;101917.63;5093818;28;20085;-74
2022/03/23 02:39:46;;;;;;;16.50;5.35;;;;;;;5.61;69.70;101920.28;5075273;28;20278;-73
2022/03/23 02:42:12;;;;;;;27.25;6.18;;;;;;;5.70;69.77;101917.25;5093445;28;20024;-74
2022/03/23 02:44:37;;;;;;;19.13;5.05;;;;;;;5.72;69.28;101912.75;5093402;28;20027;-73
2022/03/23 02:47:04;;;;;;;28.85;5.70;;;;;;;5.68;69.21;101906.66;5075336;28;20085;-74
2022/03/23 02:49:30;;;;;;;21.95;5.45;;;;;;;5.62;69.31;101916.69;5093302;28;20527;-73
2022/03/23 02:51:55;;;;;;;16.65;5.38;;;;;;;5.56;69.37;101911.59;5093470;28;20028;-73
2022/03/23 03:03:19;;;;;;;15.38;6.05;;;;;;;5.23;69.77;101913.81;5020737;28;20169;-73
2022/03/23 03:05:44;;;;;;;21.60;6.85;;;;;;;5.23;69.77;101909.31;5074949;28;20126;-73
2022/03/23 03:10:54;;;;;;;16.00;6.40;;;;;;;5.09;69.71;101903.66;5093107;28;20036;-75
2022/03/23 03:13:19;;;;;;;23.10;6.18;;;;;;;5.09;69.80;101910.78;5092952;28;20043;-73
2022/03/23 03:15:45;;;;;;;16.42;5.97;;;;;;;4.98;69.84;101903.22;5092961;28;20067;-73
2022/03/23 03:18:10;;;;;;;25.65;8.23;;;;;;;5.10;69.69;101907.22;5092925;28;20020;-73
2022/03/23 03:20:35;;;;;;;11.48;5.55;;;;;;;5.03;69.67;101911.91;5074760;28;20042;-73
2022/03/23 03:23:01;;;;;;;19.25;6.45;;;;;;;5.01;69.60;101903.09;5092900;28;20524;-73
2022/03/23 03:25:26;;;;;;;11.45;4.93;;;;;;;5.13;69.38;101918.63;5092848;28;20390;-75
2022/03/23 03:27:52;;;;;;;21.98;6.88;;;;;;;5.05;69.05;101904.72;5074407;28;20032;-75
2022/03/23 03:30:18;;;;;;;21.63;7.38;;;;;;;4.95;69.12;101919.34;5074528;28;20024;-74
2022/03/23 03:32:45;;;;;;;22.00;6.40;;;;;;;4.93;69.39;101921.16;5074594;28;20024;-73
2022/03/23 03:35:11;;;;;;;20.23;6.20;;;;;;;4.97;69.30;101922.81;5092565;28;20089;-74
2022/03/23 03:37:37;;;;;;;22.48;7.88;;;;;;;4.88;68.90;101917.81;5074335;28;20043;-75
2022/03/23 03:40:04;;;;;;;14.90;7.35;;;;;;;4.90;68.71;101921.28;5074091;28;20108;-74
2022/03/23 03:42:30;;;;;;;17.70;7.32;;;;;;;4.80;68.91;101925.25;5074246;28;20069;-74
2022/03/23 03:44:57;;;;;;;22.10;8.23;;;;;;;4.69;68.85;101919.41;5092450;28;20020;-74
2022/03/23 03:47:23;;;;;;;17.27;8.48;;;;;;;4.74;68.55;101918.31;5074220;28;20063;-74
2022/03/23 03:49:49;;;;;;;19.25;7.65;;;;;;;4.58;68.78;101924.28;5092392;28;20028;-74
2022/03/23 03:52:16;;;;;;;26.98;8.80;;;;;;;4.63;69.33;101917.84;5092435;28;20393;-74
2022/03/23 03:54:41;;;;;;;29.58;9.65;;;;;;;4.62;68.81;101925.88;5074335;28;20024;-75
2022/03/23 03:57:07;;;;;;;18.63;7.22;;;;;;;4.59;68.51;101915.34;5074128;28;20179;-74
2022/03/23 03:59:34;;;;;;;33.80;7.65;;;;;;;4.44;68.80;101915.88;5092165;28;20551;-74
2022/03/23 04:02:00;;;;;;;18.40;7.85;;;;;;;4.49;68.73;101913.94;5092032;28;20024;-74
2022/03/23 04:04:25;;;;;;;33.33;9.40;;;;;;;4.49;68.50;101929.94;5092090;28;20370;-75
2022/03/23 04:06:51;;;;;;;22.95;7.10;;;;;;;4.47;68.70;101916.66;5091722;28;20482;-73
2022/03/23 04:09:16;;;;;;;17.63;8.68;;;;;;;4.50;68.30;101923.66;5091860;28;20420;-73
2022/03/23 04:11:42;;;;;;;16.17;7.50;;;;;;;4.45;68.26;101923.84;5099299;28;20031;-73
2022/03/23 04:14:07;;;;;;;14.55;7.30;;;;;;;4.43;68.29;101915.03;5094037;28;20039;-75
2022/03/23 04:16:33;;;;;;;19.73;7.30;;;;;;;4.48;67.80;101928.19;5112277;28;20103;-75
2022/03/23 04:18:58;;;;;;;30.08;6.72;;;;;;;4.42;67.91;101923.06;5112234;28;20057;-74
2022/03/23 04:21:24;;;;;;;21.52;6.78;;;;;;;4.48;67.35;101925.50;5112288;28;20027;-73
2022/03/23 04:23:50;;;;;;;26.27;5.85;;;;;;;4.44;67.50;101931.88;5112130;28;20378;-75
2022/03/23 04:26:15;;;;;;;15.85;5.38;;;;;;;4.49;67.04;101919.28;5112075;28;20019;-74
2022/03/23 04:28:41;;;;;;;21.40;6.80;;;;;;;4.54;66.59;101933.28;5111876;28;20087;-74
2022/03/23 04:31:07;;;;;;;26.38;7.20;;;;;;;4.58;66.35;101934.94;5111730;28;20027;-75
2022/03/23 04:33:33;;;;;;;26.52;8.45;;;;;;;4.48;66.24;101926.38;5111699;28;20447;-74
2022/03/23 04:35:59;;;;;;;18.20;5.65;;;;;;;4.56;66.16;101928.75;5111543;28;20098;-77
2022/03/23 04:38:26;;;;;;;19.63;7.20;;;;;;;4.58;65.55;101925.16;5111662;28;20103;-74
2022/03/23 04:40:52;;;;;;;23.25;7.97;;;;;;;4.55;65.42;101919.06;5111710;28;20020;-76
2022/03/23 04:43:17;;;;;;;21.15;6.97;;;;;;;4.60;65.06;101907.28;5111903;28;20034;-76
2022/03/23 04:45:43;;;;;;;20.75;5.70;;;;;;;4.60;64.58;101920.63;5112007;28;20409;-75
2022/03/23 04:48:09;;;;;;;20.27;6.57;;;;;;;4.60;64.79;101909.09;5095827;28;20035;-75
2022/03/23 04:50:34;;;;;;;17.15;7.20;;;;;;;4.66;64.58;101919.53;5110577;28;20035;-75
2022/03/23 04:53:00;;;;;;;19.35;5.65;;;;;;;4.60;64.05;101911.75;5106648;28;20019;-75
2022/03/23 04:55:25;;;;;;;13.05;6.25;;;;;;;4.64;64.01;101918.72;5104964;28;20020;-74
2022/03/23 04:57:51;;;;;;;20.75;5.28;;;;;;;4.72;63.55;101911.31;5099454;28;20498;-75
2022/03/23 05:00:20;;;;;;;22.90;5.15;;;;;;;4.74;63.31;101910.31;5095401;28;20027;-76
2022/03/23 05:02:47;;;;;;;16.85;5.30;;;;;;;4.78;63.11;101917.28;5103610;28;20023;-75
2022/03/23 05:05:13;;;;;;;15.40;5.30;;;;;;;4.82;62.69;101908.25;5113841;28;20059;-74
2022/03/23 05:07:40;;;;;;;29.65;7.07;;;;;;;4.91;62.11;101909.69;5112297;28;20055;-76
2022/03/23 05:10:08;;;;;;;31.83;5.88;;;;;;;4.89;62.10;101914.22;5104521;28;20358;-76
2022/03/23 05:12:35;;;;;;;22.33;5.18;;;;;;;4.81;61.97;101910.97;5106207;28;20024;-76
2022/03/23 05:15:01;;;;;;;16.33;5.13;;;;;;;4.99;61.75;101920.94;5113899;28;20026;-74
2022/03/23 05:17:26;;;;;;;14.82;5.90;;;;;;;5.10;61.26;101923.22;5115223;28;20397;-77
2022/03/23 05:19:52;;;;;;;23.58;6.53;;;;;;;5.19;60.72;101913.06;5115441;28;20076;-76
2022/03/23 05:22:17;;;;;;;26.95;7.43;;;;;;;5.23;60.58;101914.66;5115237;28;20060;-77
2022/03/23 05:24:43;;;;;;;18.73;5.43;;;;;;;5.40;60.29;101922.03;5114709;28;20393;-76
2022/03/23 05:27:08;;;;;;;25.60;5.60;;;;;;;5.47;59.76;101920.84;5094761;28;20334;-75
2022/03/23 05:29:35;;;;;;;18.85;7.47;;;;;;;5.61;59.64;101915.81;5076127;28;20116;-76
2022/03/23 05:32:01;;;;;;;15.40;4.78;;;;;;;5.67;58.74;101910.25;5094547;28;20059;-76
2022/03/23 05:34:26;;;;;;;14.20;4.93;;;;;;;5.80;57.89;101910.59;5094702;28;20110;-75
2022/03/23 05:36:52;;;;;;;17.25;5.03;;;;;;;5.90;57.75;101912.00;5095101;28;20552;-77
2022/03/23 05:39:17;;;;;;;19.45;5.50;;;;;;;6.01;57.03;101915.09;5094278;28;20470;-75
2022/03/23 05:41:43;;;;;;;23.02;5.25;;;;;;;6.07;56.90;101925.50;5093239;28;20085;-75
2022/03/23 05:44:08;;;;;;;10.00;4.43;;;;;;;6.15;56.43;101928.72;5094238;28;20024;-74
2022/03/23 05:46:34;;;;;;;56.85;8.20;;;;;;;6.26;55.85;101928.28;5094278;28;20551;-75
2022/03/23 05:49:00;;;;;;;22.50;4.03;;;;;;;6.29;55.66;101926.34;5093915;28;20032;-75
2022/03/23 05:51:25;;;;;;;26.10;5.15;;;;;;;6.40;55.00;101924.06;5093966;28;20032;-76
2022/03/23 05:53:51;;;;;;;22.08;4.40;;;;;;;6.47;54.02;101925.56;5075756;28;20370;-75
2022/03/23 05:56:17;;;;;;;24.20;5.88;;;;;;;6.57;53.68;101939.38;5094152;28;20035;-74
2022/03/23 05:58:43;;;;;;;21.00;5.03;;;;;;;6.47;53.29;101920.22;5094012;28;20024;-74
2022/03/23 06:01:09;;;;;;;18.23;4.07;;;;;;;6.54;53.32;101936.84;5075832;28;20395;-74
2022/03/23 06:03:35;;;;;;;21.73;4.50;;;;;;;6.61;52.73;101932.06;5075751;28;20035;-74
2022/03/23 06:06:01;;;;;;;14.30;5.47;;;;;;;6.64;52.66;101940.81;5075811;28;20172;-76
2022/03/23 06:08:26;;;;;;;18.25;3.92;;;;;;;6.75;51.92;101929.66;5093520;28;20052;-76
2022/03/23 06:10:52;;;;;;;16.05;4.32;;;;;;;6.80;51.70;101938.34;5093555;28;20027;-75
2022/03/23 06:13:17;;;;;;;12.23;4.60;;;;;;;6.86;50.69;101938.06;5093600;28;20036;-75
2022/03/23 06:15:43;;;;;;;17.40;4.93;;;;;;;6.88;49.98;101936.22;5075493;28;20067;-77
2022/03/23 06:18:09;;;;;;;16.23;4.82;;;;;;;6.94;50.03;101930.59;5093903;28;20034;-75
2022/03/23 06:20:34;;;;;;;38.38;5.57;;;;;;;7.08;49.67;101936.16;5093895;28;20032;-76
2022/03/23 06:22:59;;;;;;;16.67;4.93;;;;;;;7.18;48.65;101929.44;5093601;28;20028;-76
2022/03/23 06:25:26;;;;;;;11.77;3.97;;;;;;;7.33;47.94;101939.44;5093599;28;20050;-75
2022/03/23 06:27:52;;;;;;;15.20;4.30;;;;;;;7.38;47.59;101929.38;5075131;28;20029;-75
2022/03/23 06:30:18;;;;;;;24.52;5.10;;;;;;;7.47;47.17;101920.91;5093106;28;20107;-75
2022/03/23 06:32:43;;;;;;;31.45;5.32;;;;;;;7.56;46.35;101936.53;5075121;28;20101;-75
2022/03/23 06:35:09;;;;;;;20.33;5.28;;;;;;;7.62;45.36;101925.53;5092964;28;20024;-75
2022/03/23 06:37:35;;;;;;;19.55;5.10;;;;;;;7.70;45.74;101927.84;5093140;28;20591;-75
2022/03/23 06:40:01;;;;;;;10.95;4.78;;;;;;;7.72;45.94;101930.44;5074927;28;20035;-75
2022/03/23 06:42:27;;;;;;;15.48;4.43;;;;;;;7.81;45.27;101940.69;5093158;28;20047;-75
2022/03/23 06:44:54;;;;;;;14.82;5.28;;;;;;;7.83;44.79;101918.25;5093181;28;20027;-75
2022/03/23 06:47:19;;;;;;;22.63;5.43;;;;;;;7.91;44.00;101920.56;5074890;28;20031;-75
2022/03/23 06:49:45;;;;;;;14.85;3.45;;;;;;;8.04;43.63;101927.03;5092947;28;20054;-74
2022/03/23 06:52:10;;;;;;;12.52;4.80;;;;;;;8.11;42.51;101917.72;5093101;28;20020;-76
2022/03/23 06:54:36;;;;;;;9.98;4.68;;;;;;;8.08;42.88;101924.13;5092993;28;20028;-75
2022/03/23 06:57:02;;;;;;;28.45;5.20;;;;;;;8.27;42.56;101912.47;5092838;28;20481;-76
2022/03/23 06:59:27;;;;;;;9.18;4.18;;;;;;;8.33;41.92;101921.09;5092807;28;20037;-76
2022/03/23 07:01:53;;;;;;;12.45;4.35;;;;;;;8.38;40.29;101919.03;5093077;28;20482;-75
2022/03/23 07:04:18;;;;;;;10.40;3.70;;;;;;;8.48;40.07;101916.75;5093087;28;20540;-75
2022/03/23 07:06:44;;;;;;;13.82;4.60;;;;;;;8.57;39.90;101925.19;5092562;28;20039;-76
2022/03/23 07:11:54;;;;;;;7.00;2.90;;;;;;;8.88;38.68;101904.75;5092231;28;20089;-75
2022/03/23 07:14:20;;;;;;;6.53;3.00;;;;;;;8.93;37.29;101924.19;5092637;28;20030;-76
2022/03/23 07:16:45;;;;;;;23.83;3.78;;;;;;;8.97;37.04;101925.72;5074489;28;20027;-75
2022/03/23 07:19:13;;;;;;;19.70;3.80;;;;;;;9.00;36.50;101914.84;5092600;28;20460;-75
2022/03/23 07:21:38;;;;;;;10.40;3.33;;;;;;;9.03;36.14;101925.41;5092121;28;20478;-74
2022/03/23 07:24:04;;;;;;;11.07;3.72;;;;;;;9.09;36.10;101915.19;5092219;28;20052;-75
2022/03/23 07:26:29;;;;;;;19.25;3.83;;;;;;;9.11;36.04;101907.91;5091936;28;20103;-74
2022/03/23 07:28:56;;;;;;;12.48;4.25;;;;;;;9.23;35.96;101934.09;5092100;28;20020;-76
2022/03/23 07:31:21;;;;;;;21.67;4.05;;;;;;;9.21;34.56;101924.38;5073919;28;20048;-75
2022/03/23 07:33:47;;;;;;;8.13;2.67;;;;;;;9.21;34.21;101930.63;5092106;28;20452;-76
2022/03/23 07:36:12;;;;;;;38.03;5.40;;;;;;;9.23;33.10;101927.88;5091914;28;20366;-76
2022/03/23 07:38:39;;;;;;;10.32;4.07;;;;;;;9.19;33.69;101920.94;5091941;28;20020;-75
2022/03/23 07:41:05;;;;;;;9.27;3.42;;;;;;;9.27;33.71;101921.38;5073589;28;20028;-76
2022/03/23 07:43:30;;;;;;;11.93;3.63;;;;;;;9.41;34.08;101926.00;5091788;28;20028;-76
2022/03/23 07:45:55;;;;;;;11.13;2.67;;;;;;;9.55;32.67;101921.56;5092048;28;20027;-77
2022/03/23 07:48:23;;;;;;;13.07;2.40;;;;;;;9.64;31.40;101915.66;5091885;28;20482;-76
2022/03/23 07:50:50;;;;;;;13.15;4.30;;;;;;;9.56;30.57;101909.00;5092094;28;20024;-76
2022/03/23 07:53:15;;;;;;;12.13;3.65;;;;;;;9.70;31.44;101918.00;5092011;28;20032;-75
2022/03/23 07:55:41;;;;;;;19.30;2.63;;;;;;;9.86;31.25;101918.00;5091680;28;20031;-76
2022/03/23 07:58:06;;;;;;;6.50;2.75;;;;;;;10.00;31.29;101936.03;5091630;28;20031;-76
2022/03/23 08:00:33;;;;;;;22.38;3.60;;;;;;;10.12;31.30;101903.88;5073376;28;20112;-76
2022/03/23 08:02:58;;;;;;;29.25;3.92;;;;;;;10.17;30.65;101914.41;5091553;28;20027;-77
2022/03/23 08:05:25;;;;;;;34.92;4.35;;;;;;;10.24;31.42;101918.47;5091718;28;20043;-76
2022/03/23 08:07:51;;;;;;;23.00;4.25;;;;;;;10.31;31.24;101909.06;5091352;28;20433;-76
2022/03/23 08:10:17;;;;;;;9.48;2.92;;;;;;;10.41;31.25;101910.25;5091523;28;20434;-76
2022/03/23 08:12:42;;;;;;;15.25;3.88;;;;;;;10.46;31.19;101897.38;5091029;28;20019;-75
2022/03/23 08:15:09;;;;;;;33.92;3.38;;;;;;;10.41;30.69;101912.06;5091213;28;20024;-75
2022/03/23 08:17:38;;;;;;;27.33;3.30;;;;;;;10.41;30.64;101930.91;5091357;28;20039;-77
2022/03/23 08:22:51;;;;;;;24.13;3.70;;;;;;;10.43;30.63;101907.50;5090857;28;20554;-75
2022/03/23 08:25:16;;;;;;;12.93;3.00;;;;;;;10.49;30.25;101918.72;5073198;28;20024;-75
2022/03/23 08:27:42;;;;;;;41.50;6.88;;;;;;;10.57;30.98;101904.81;5073155;28;20027;-75
2022/03/23 08:30:08;;;;;;;5.45;2.72;;;;;;;10.68;30.93;101897.81;5073137;28;20496;-76
2022/03/23 08:32:33;;;;;;;12.20;4.65;;;;;;;10.66;30.38;101905.13;5073204;28;20498;-74
2022/03/23 08:34:59;;;;;;;14.85;4.28;;;;;;;10.72;31.19;101899.38;5091226;28;20038;-76
2022/03/23 08:37:24;;;;;;;25.67;4.47;;;;;;;10.78;31.65;101914.25;5091233;28;20078;-76
2022/03/23 08:39:50;;;;;;;22.33;4.10;;;;;;;10.88;31.37;101900.16;5091213;28;20108;-75
2022/03/23 08:42:15;;;;;;;21.77;3.95;;;;;;;11.00;30.95;101911.97;5091141;28;20402;-76
2022/03/23 08:44:41;;;;;;;29.95;3.20;;;;;;;11.06;30.52;101902.63;5072995;28;20028;-75
2022/03/23 08:47:08;;;;;;;19.02;3.17;;;;;;;11.19;29.44;101904.44;5091128;28;20477;-75
2022/03/23 08:49:34;;;;;;;18.55;3.30;;;;;;;11.23;29.44;101883.56;5091164;28;20111;-76
2022/03/23 08:51:59;;;;;;;16.58;3.17;;;;;;;11.40;29.20;101896.84;5072904;28;20067;-75
2022/03/23 08:54:25;;;;;;;22.13;3.58;;;;;;;11.43;28.82;101883.16;5091077;28;20054;-76
2022/03/23 08:56:50;;;;;;;10.93;2.80;;;;;;;11.57;28.12;101875.03;5091097;28;20035;-75
2022/03/23 08:59:15;;;;;;;25.08;3.33;;;;;;;11.65;28.47;101870.00;5091138;28;20335;-75
2022/03/23 09:01:41;;;;;;;24.73;2.70;;;;;;;11.66;27.08;101860.09;5091042;28;20028;-77
2022/03/23 09:04:08;;;;;;;14.25;2.72;;;;;;;11.77;26.47;101874.59;5072948;28;20032;-76
2022/03/23 09:06:34;;;;;;;14.95;2.58;;;;;;;11.80;25.96;101862.78;5091132;28;20028;-76
2022/03/23 09:08:59;;;;;;;33.10;2.90;;;;;;;11.90;26.46;101877.34;5090596;28;20578;-75
2022/03/23 09:11:24;;;;;;;12.63;2.22;;;;;;;12.07;25.41;101877.09;5091039;28;20028;-76
2022/03/23 09:13:50;;;;;;;13.18;2.20;;;;;;;12.17;26.03;101872.78;5090666;28;20063;-75
2022/03/23 09:16:16;;;;;;;5.53;2.10;;;;;;;12.28;25.15;101872.06;5090724;28;20036;-75
2022/03/23 09:18:41;;;;;;;27.20;2.63;;;;;;;12.24;25.69;101859.75;5090887;28;20049;-76
2022/03/23 09:21:07;;;;;;;19.23;2.95;;;;;;;12.25;26.56;101875.84;5090792;28;20058;-76
2022/03/23 09:23:32;;;;;;;14.65;3.28;;;;;;;12.31;25.51;101880.81;5090784;28;20117;-75
2022/03/23 09:26:00;;;;;;;17.25;2.80;;;;;;;12.30;25.40;101867.41;5090889;28;20435;-75
2022/03/23 09:28:25;;;;;;;15.63;2.47;;;;;;;12.24;26.03;101862.44;5090644;28;20141;-76
2022/03/23 09:30:51;;;;;;;20.30;4.03;;;;;;;12.17;25.31;101874.66;5072496;28;20119;-75
2022/03/23 09:33:16;;;;;;;16.10;2.90;;;;;;;12.23;26.58;101866.13;5090929;28;20050;-74
2022/03/23 09:35:42;;;;;;;19.50;3.15;;;;;;;12.25;26.99;101864.19;5094192;28;20035;-75
2022/03/23 09:38:08;;;;;;;18.83;3.17;;;;;;;12.38;26.90;101859.69;5094213;28;20107;-75
2022/03/23 09:40:34;;;;;;;101.25;9.75;;;;;;;12.32;26.88;101865.50;5094183;28;20039;-76
2022/03/23 09:43:09;;;;;;;242.90;15.57;;;;;;;12.25;25.87;101856.09;5075860;28;20028;-75
2022/03/23 09:48:11;;;;;;;16.17;2.67;;;;;;;12.23;26.33;101855.34;5093843;28;20402;-76
2022/03/23 09:50:42;;;;;;;36.25;2.60;;;;;;;12.18;26.83;101849.38;5094149;28;20031;-76
2022/03/23 09:53:08;;;;;;;20.15;3.30;;;;;;;12.38;28.30;101851.59;5076234;28;20035;-74
2022/03/23 09:55:34;;;;;;;25.00;3.35;;;;;;;12.59;27.07;101855.47;5094072;28;20028;-76
2022/03/23 09:58:01;;;;;;;28.05;4.03;;;;;;;12.63;27.77;101838.06;5094107;28;20024;-77
2022/03/23 10:00:33;;;;;;;16.45;2.60;;;;;;;12.82;26.67;101843.91;5075507;28;20024;-76
2022/03/23 10:02:58;;;;;;;21.15;3.40;;;;;;;12.80;26.18;101842.28;5075888;28;20107;-75
2022/03/23 10:05:58;;;;;;;47.53;4.03;;;;;;;12.98;26.29;101849.94;5094115;28;20063;-75
2022/03/23 10:09:08;;;;;;;23.80;3.53;;;;;;;13.04;26.00;101827.03;5057905;28;20565;-76
2022/03/23 10:12:11;;;;;;;28.17;3.17;;;;;;;13.07;26.37;101838.47;5032850;28;20044;-76
2022/03/23 10:14:58;;;;;;;25.75;3.47;;;;;;;13.22;27.13;101832.94;5053187;28;20028;-76
2022/03/23 10:17:44;;;;;;;36.22;4.90;;;;;;;13.34;28.10;101842.84;5051917;28;20083;-77
2022/03/23 10:20:14;;;;;;;23.08;3.28;;;;;;;13.37;25.42;101829.13;5051912;28;20036;-75
2022/03/23 10:22:52;;;;;;;20.23;3.45;;;;;;;13.35;26.99;101804.06;5053182;28;20086;-76
2022/03/23 10:25:27;;;;;;;41.78;5.15;;;;;;;13.34;26.99;101826.63;5053132;28;20033;-75
2022/03/23 10:27:55;;;;;;;18.33;4.47;;;;;;;13.46;27.24;101820.31;5051759;28;20471;-76
2022/03/23 10:30:32;;;;;;;32.53;4.50;;;;;;;13.45;26.63;101824.03;5053128;28;20044;-76
2022/03/23 10:32:58;;;;;;;22.35;3.50;;;;;;;13.50;26.88;101820.00;5053567;28;20024;-76
2022/03/23 10:35:36;;;;;;;25.88;3.83;;;;;;;13.70;25.31;101810.38;5053228;28;20028;-76
2022/03/23 10:38:16;;;;;;;28.48;5.32;;;;;;;13.81;25.26;101818.56;5053120;28;20025;-76
2022/03/23 10:40:44;;;;;;;25.80;3.28;;;;;;;13.81;25.78;101815.84;5051762;28;20020;-79
2022/03/23 10:43:11;;;;;;;16.45;5.28;;;;;;;13.94;25.61;101813.06;5053051;28;20506;-75
2022/03/23 10:45:37;;;;;;;40.60;5.38;;;;;;;14.12;25.11;101817.94;5052203;28;20068;-77
2022/03/23 10:48:16;;;;;;;20.67;3.75;;;;;;;14.14;23.14;101815.97;5052903;28;20154;-76
2022/03/23 10:50:53;;;;;;;28.98;3.10;;;;;;;14.11;23.85;101805.38;5051457;28;20139;-78
2022/03/23 10:53:31;;;;;;;19.13;2.97;;;;;;;14.11;22.26;101799.97;5052979;28;20057;-77
2022/03/23 10:55:56;;;;;;;23.45;3.63;;;;;;;14.17;22.62;101804.03;5052632;28;20082;-77
2022/03/23 10:58:25;;;;;;;26.58;2.95;;;;;;;14.21;22.82;101792.00;5052548;28;20024;-77
2022/03/23 11:00:54;;;;;;;51.58;4.32;;;;;;;14.32;22.39;101796.56;5052559;28;20017;-76
2022/03/23 11:03:19;;;;;;;32.97;4.28;;;;;;;14.34;21.32;101789.22;5052662;28;20055;-76
2022/03/23 11:05:48;;;;;;;29.13;3.63;;;;;;;14.28;21.01;101781.56;5051157;28;20443;-77
2022/03/23 11:08:14;;;;;;;18.80;2.60;;;;;;;14.24;19.42;101799.00;5051178;28;20048;-76
2022/03/23 11:16:27;;;;;;;20.85;4.85;;;;;;;13.98;19.39;101779.38;5052899;28;20071;-75
2022/03/23 11:19:06;;;;;;;22.88;4.22;;;;;;;14.08;20.26;101783.09;5052459;28;20021;-75
2022/03/23 11:21:31;;;;;;;31.88;3.58;;;;;;;14.12;18.50;101765.66;5050879;28;20021;-76
2022/03/23 11:23:57;;;;;;;22.85;2.47;;;;;;;14.07;18.43;101770.53;5052235;28;20079;-75
2022/03/23 11:26:23;;;;;;;28.95;3.28;;;;;;;14.04;17.72;101777.06;5052407;28;20108;-76
2022/03/23 11:28:50;;;;;;;26.95;8.57;;;;;;;13.99;18.35;101773.88;5051833;28;20040;-77
2022/03/23 11:31:16;;;;;;;22.70;2.60;;;;;;;13.92;18.18;101779.84;5051948;28;20021;-76
2022/03/23 11:33:49;;;;;;;16.08;2.17;;;;;;;13.92;18.34;101769.91;5050692;28;20024;-76
2022/03/23 11:36:17;;;;;;;35.50;4.13;;;;;;;13.96;18.10;101768.69;5050633;28;20048;-76
2022/03/23 11:38:43;;;;;;;22.60;2.85;;;;;;;13.87;18.26;101764.00;5050341;28;20052;-75
2022/03/23 11:41:09;;;;;;;40.05;3.92;;;;;;;13.99;17.77;101760.34;5051786;28;20021;-76
2022/03/23 11:43:37;;;;;;;23.10;3.08;;;;;;;14.15;17.78;101741.94;5050783;28;20100;-76
2022/03/23 11:46:04;;;;;;;18.27;2.83;;;;;;;14.12;17.13;101762.94;5050406;28;20036;-75